Data for 11/20/2014

Time Sea-Level Adjusted Pressure Absolute Pressure Temperature Relative Humidity Dew Point   
(mb) (inHg) (mb) (inHg) (C) (F) (%) (C) (F)
00:05 1017 30.03 846 24.98 -2.6 27.2 73 -6.9 19.7
00:10 1017 30.03 846 24.98 -2.9 26.8 74 -6.8 19.7
00:15 1017 30.03 846 24.98 -3.3 26 75 -7.1 19.1
00:20 1017 30.03 846 24.98 -3.1 26.4 74 -7.1 19.2
00:25 1017 30.03 846 24.98 -3.2 26.3 73 -7.3 18.8
00:30 1017 30.03 846 24.98 -3 26.6 70 -7.7 18.1
00:35 1017 30.03 846 24.98 -2.9 26.8 70 -7.6 18.3
00:40 1017 30.03 846 24.98 -3 26.5 70 -7.8 18
00:45 1017 30.03 846 24.98 -2.8 27 68 -7.8 18
00:50 1017 30.03 846 24.98 -2.6 27.4 68 -7.8 18
00:55 1017 30.03 846 24.98 -2.7 27.2 69 -7.7 18.2
01:00 1017 30.03 846 24.98 -2.8 27 69 -7.7 18.2
01:05 1017 30.03 846 24.98 -2.9 26.8 71 -7.5 18.5
01:10 1017 30.03 846 24.98 -3 26.6 71 -7.6 18.3
01:15 1017 30.03 846 24.98 -3.1 26.4 71 -7.7 18.2
01:20 1017 30.03 846 24.98 -3.3 26.1 72 -7.6 18.3
01:25 1017 30.03 846 24.98 -3.4 25.8 73 -7.7 18.2
01:30 1017 30.03 846 24.98 -3.2 26.3 70 -7.8 17.9
01:35 1016 30 846 24.98 -3.2 26.2 71 -7.7 18.1
01:40 1016 30 846 24.98 -3.2 26.2 71 -7.7 18.1
01:45 1016 30 846 24.98 -3.3 26.2 71 -7.8 18
01:50 1016 30 846 24.98 -3.2 26.3 72 -7.6 18.4
01:55 1016 30 846 24.98 -3.3 26.1 72 -7.6 18.3
02:00 1016 30 846 24.98 -3.6 25.6 74 -7.6 18.3
02:05 1016 30 846 24.98 -3.5 25.7 73 -7.7 18.1
02:10 1016 30 846 24.98 -3.3 26 72 -7.7 18.2
02:15 1016 30 846 24.98 -3.2 26.2 72 -7.6 18.3
02:20 1016 30 846 24.98 -3.3 26 72 -7.6 18.2
02:25 1016 30 845 24.95 -3.4 25.8 73 -7.7 18.2
02:30 1016 30 845 24.95 -3.3 26 72 -7.6 18.4
02:35 1016 30 845 24.95 -2.9 26.7 70 -7.6 18.3
02:40 1016 30 845 24.95 -2.9 26.7 69 -7.8 17.9
02:45 1016 30 845 24.95 -2.9 26.9 69 -7.8 17.9
02:50 1016 30 845 24.95 -2.8 27 69 -7.8 18
02:55 1016 30 845 24.95 -2.8 27 68 -7.9 17.7
03:00 1016 30 845 24.95 -2.7 27.2 67 -8 17.6
03:05 1016 30 845 24.95 -2.7 27.2 67 -8 17.6
03:10 1016 30 845 24.95 -2.8 26.9 68 -7.9 17.9
03:15 1016 30 845 24.95 -2.8 27 68 -7.8 17.9
03:20 1016 30 845 24.95 -2.7 27.1 69 -7.6 18.3
03:25 1016 30 845 24.95 -2.5 27.5 68 -7.5 18.5
03:30 1016 30 845 24.95 -2.2 28.1 67 -7.5 18.5
03:35 1016 30 845 24.95 -1.9 28.7 67 -7.2 19
03:40 1016 30 845 24.95 -2 28.4 67 -7.3 18.8
03:45 1016 30 845 24.95 -1.9 28.6 65 -7.5 18.4
03:50 1016 30 845 24.95 -1.6 29.1 64 -7.5 18.5
03:55 1016 30 845 24.95 -1.6 29.2 66 -7.2 19
04:00 1016 30 845 24.95 -1.6 29 65 -7.5 18.6
04:05 1016 30 845 24.95 -1.7 29 65 -7.5 18.6
04:10 1016 30 845 24.95 -1.9 28.5 66 -7.5 18.4
04:15 1016 30 845 24.95 -1.9 28.5 65 -7.6 18.3
04:20 1016 30 845 24.95 -1.8 28.8 66 -7.2 19
04:25 1016 30 845 24.95 -1.9 28.5 67 -7.2 19.1
04:30 1016 30 845 24.95 -1.9 28.5 67 -7.3 18.9
04:35 1016 30 845 24.95 -1.9 28.5 67 -7.3 18.8
04:40 1016 30 845 24.95 -2 28.5 66 -7.5 18.6
04:45 1016 30 845 24.95 -2 28.4 67 -7.4 18.7
04:50 1016 30 845 24.95 -2.1 28.3 68 -7.3 18.9
04:55 1016 30 845 24.95 -2.2 28.1 68 -7.4 18.7
05:00 1016 30 845 24.95 -2.1 28.2 68 -7.3 18.8
05:05 1016 30 845 24.95 -2 28.3 66 -7.7 18.2
05:10 1016 30 845 24.95 -1.7 28.9 65 -7.4 18.6
05:15 1016 30 845 24.95 -1.8 28.8 66 -7.3 18.9
05:20 1016 30 845 24.95 -1.9 28.6 67 -7.2 19
05:25 1016 30 845 24.95 -1.9 28.5 67 -7.2 19
05:30 1016 30 845 24.95 -1.9 28.6 67 -7.2 19.1
05:35 1016 30 845 24.95 -1.9 28.6 68 -7 19.4
05:40 1016 30 845 24.95 -1.7 29 67 -7.1 19.3
05:45 1016 30 845 24.95 -1.4 29.5 64 -7.3 18.8
05:50 1016 30 845 24.95 -0.9 30.4 61 -7.6 18.3
05:55 1016 30 845 24.95 -0.5 31 58 -7.7 18.1
06:00 1016 30 845 24.95 -0.7 30.8 64 -6.7 19.9
06:05 1016 30 845 24.95 -1.7 29 68 -6.7 19.9
06:10 1016 30 845 24.95 -2.3 27.9 69 -7.1 19.2
06:15 1016 30 845 24.95 -2.2 28.1 70 -7 19.5
06:20 1016 30 845 24.95 -2.5 27.6 82 -5.1 22.9
06:25 1016 30 845 24.95 -2.5 27.5 79 -5.7 21.7
06:30 1016 30 845 24.95 -2.4 27.7 77 -5.8 21.5
06:35 1016 30 845 24.95 -2.4 27.8 75 -6.2 20.9
06:40 1016 30 845 24.95 -2.1 28.1 72 -6.5 20.3
06:45 1016 30 845 24.95 -1.8 28.8 69 -6.8 19.7
06:50 1016 30 845 24.95 -1.5 29.4 68 -6.5 20.2
06:55 1016 30 845 24.95 -1.6 29.2 68 -6.7 20
07:00 1016 30 845 24.95 -1 30.2 68 -6.3 20.7
07:05 1016 30 845 24.95 -1.4 29.5 69 -6.3 20.7
07:10 1016 30 845 24.95 -2 28.4 75 -5.8 21.5
07:15 1016 30 845 24.95 -2.4 27.7 79 -5.5 22
07:20 1016 30 845 24.95 -2.4 27.8 76 -6.1 21
07:25 1016 30 845 24.95 -2 28.5 72 -6.3 20.6
07:30 1016 30 845 24.95 -2 28.4 72 -6.4 20.5
07:35 1016 30 845 24.95 -2 28.4 71 -6.7 20
07:40 1016 30 845 24.95 -2.1 28.2 71 -6.6 20.1
07:45 1016 30 845 24.95 -2.5 27.5 72 -6.9 19.6
07:50 1016 30 845 24.95 -2.3 27.8 70 -7 19.4
07:55 1016 30 845 24.95 -2.3 27.9 69 -7.1 19.1
08:00 1016 30 845 24.95 -2.6 27.3 73 -6.8 19.8
08:05 1016 30 845 24.95 -2.4 27.6 68 -7.5 18.5
08:10 1016 30 846 24.98 -1.8 28.7 66 -7.3 18.9
08:15 1016 30 846 24.98 -1.8 28.8 67 -7.1 19.1
08:20 1016 30 846 24.98 -1.7 28.9 67 -7 19.4
08:25 1016 30 846 24.98 -1.9 28.5 68 -7 19.4
08:30 1016 30 846 24.98 -1.7 29 70 -6.4 20.5
08:35 1016 30 846 24.98 -1.9 28.7 73 -6 21.1
08:40 1016 30 845 24.95 -2.2 28.1 73 -6.5 20.3
08:45 1016 30 846 24.98 -3 26.6 74 -7.1 19.3
08:50 1016 30 846 24.98 -3.6 25.5 76 -7.3 18.9
08:55 1016 30 846 24.98 -3.2 26.2 72 -7.6 18.4
09:00 1016 30 846 24.98 -2.7 27.2 69 -7.6 18.4
09:05 1016 30 846 24.98 -2.5 27.4 67 -7.9 17.8
09:10 1016 30 846 24.98 -2.5 27.5 68 -7.7 18.2
09:15 1016 30 846 24.98 -2.7 27.1 67 -8 17.7
09:20 1016 30 846 24.98 -2.5 27.5 67 -7.9 17.8
09:25 1016 30 846 24.98 -2.7 27.2 67 -8 17.6
09:30 1016 30 846 24.98 -2.4 27.6 67 -7.7 18.1
09:35 1016 30 846 24.98 -2.6 27.4 67 -7.9 17.8
09:40 1016 30 846 24.98 -2.3 27.9 66 -7.8 17.9
09:45 1016 30 846 24.98 -2.1 28.3 66 -7.6 18.3
09:50 1016 30 846 24.98 -1.9 28.7 65 -7.7 18.2
09:55 1016 30 846 24.98 -2.2 28 66 -7.8 18
10:00 1016 30 846 24.98 -2.4 27.7 66 -8 17.7
10:05 1016 30 846 24.98 -2.1 28.2 64 -8 17.5
10:10 1016 30 846 24.98 -1.8 28.7 64 -7.8 18
10:15 1016 30 846 24.98 -1.9 28.5 63 -8.1 17.4
10:20 1016 30 846 24.98 -1.2 29.8 60 -8 17.6
10:25 1016 30 846 24.98 -1 30.2 59 -8 17.7
10:30 1016 30 845 24.95 -0.9 30.4 60 -7.8 18
10:35 1016 30 846 24.98 -0.9 30.3 60 -7.7 18.1
10:40 1016 30 846 24.98 -1 30.3 60 -7.7 18.2
10:45 1016 30 846 24.98 -1 30.3 61 -7.6 18.3
10:50 1016 30 846 24.98 -0.8 30.5 60 -7.6 18.3
10:55 1016 30 846 24.98 -0.8 30.5 61 -7.5 18.5
11:00 1016 30 846 24.98 -0.6 30.9 59 -7.6 18.4
11:05 1016 30 846 24.98 -0.1 31.8 57 -7.6 18.3
11:10 1016 30 846 24.98 0.4 32.7 54 -8 17.7
11:15 1016 30 846 24.98 0.9 33.6 53 -7.6 18.2
11:20 1016 30 846 24.98 1.2 34.1 54 -7 19.3
11:25 1016 30 846 24.98 1.3 34.4 54 -7 19.5
11:30 1016 30 846 24.98 1.8 35.2 52 -7 19.3
11:35 1016 30 846 24.98 2.2 36 50 -7.2 19
11:40 1016 30 846 24.98 2.6 36.8 47 -7.6 18.3
11:45 1016 30 846 24.98 3.3 38 45 -7.6 18.4
11:50 1016 30 845 24.95 3.7 38.6 45 -7.2 19
11:55 1016 30 845 24.95 4 39.3 43 -7.4 18.7
12:00 1016 30 845 24.95 4.3 39.8 43 -7.1 19.3
12:05 1016 30 845 24.95 4.8 40.6 42 -7.1 19.1
12:10 1016 30 845 24.95 4.7 40.5 40 -7.8 17.9
12:15 1016 30 845 24.95 5.5 42 39 -7.2 19.1
12:20 1016 30 845 24.95 5.4 41.7 40 -7.3 18.9
12:25 1016 30 845 24.95 5.1 41.2 39 -7.9 17.8
12:30 1016 30 845 24.95 5.1 41.1 40 -7.5 18.4
12:35 1016 30 845 24.95 5.3 41.5 41 -7 19.4
12:40 1016 30 845 24.95 5.1 41.1 41 -7.2 19.1
12:45 1016 30 845 24.95 5 41 42 -6.8 19.8
12:50 1016 30 845 24.95 5.3 41.6 44 -6.1 21.1
12:55 1016 30 845 24.95 5.5 41.8 43 -6 21.2
13:00 1016 30 845 24.95 5.3 41.6 45 -5.7 21.8
13:05 1016 30 845 24.95 5.5 41.8 43 -6.2 20.8
13:10 1016 30 845 24.95 5.4 41.7 44 -5.8 21.6
13:15 1016 30 845 24.95 5.5 41.8 45 -5.6 21.9
13:20 1015 29.97 845 24.95 5.4 41.8 47 -5.1 22.8
13:25 1015 29.97 845 24.95 5.3 41.5 49 -4.6 23.8
13:30 1015 29.97 845 24.95 5.4 41.7 48 -4.6 23.7
13:35 1015 29.97 845 24.95 5.9 42.6 47 -4.6 23.7
13:40 1015 29.97 845 24.95 6.1 43.1 47 -4.4 24.1
13:45 1015 29.97 845 24.95 6 42.9 47 -4.4 24.1
13:50 1015 29.97 844 24.92 5.9 42.6 47 -4.6 23.8
13:55 1015 29.97 844 24.92 5.8 42.4 45 -5.3 22.5
14:00 1015 29.97 844 24.92 6 42.9 45 -5 22.9
14:05 1015 29.97 844 24.92 6.8 44.3 40 -5.7 21.7
14:10 1015 29.97 844 24.92 6.9 44.4 40 -5.7 21.7
14:15 1015 29.97 844 24.92 7.3 45.2 39 -5.8 21.6
14:20 1015 29.97 844 24.92 7.7 45.9 39 -5.3 22.4
14:25 1015 29.97 844 24.92 8 46.4 38 -5.3 22.4
14:30 1015 29.97 844 24.92 7.8 46.1 39 -5.3 22.4
14:35 1015 29.97 844 24.92 8.1 46.6 38 -5.4 22.4
14:40 1015 29.97 844 24.92 8 46.4 38 -5.4 22.3
14:45 1015 29.97 844 24.92 7.9 46.3 36 -6.1 21
14:50 1015 29.97 844 24.92 7.2 44.9 42 -4.9 23.2
14:55 1015 29.97 844 24.92 6.5 43.7 42 -5.6 21.9
15:00 1015 29.97 844 24.92 6.4 43.6 38 -6.7 19.9
15:05 1015 29.97 844 24.92 6.2 43.1 41 -6.2 20.9
15:10 1015 29.97 844 24.92 6 42.8 40 -6.5 20.3
15:15 1015 29.97 844 24.92 6.5 43.8 38 -6.9 19.7
15:20 1015 29.97 844 24.92 6.7 44.1 36 -7.2 19
15:25 1014 29.94 844 24.92 6.4 43.6 40 -6.3 20.7
15:30 1014 29.94 844 24.92 6.5 43.7 40 -6.1 21
15:35 1014 29.94 844 24.92 6.7 44.1 40 -6.1 21.1
15:40 1014 29.94 844 24.92 6.8 44.2 41 -5.6 22
15:45 1014 29.94 844 24.92 6.8 44.3 41 -5.6 21.9
15:50 1014 29.94 844 24.92 7 44.6 40 -5.8 21.5
15:55 1014 29.94 843 24.89 6.9 44.4 43 -5 23.1
16:00 1014 29.94 843 24.89 6.3 43.4 47 -4.1 24.7
16:05 1014 29.94 843 24.89 6.1 43 48 -4.1 24.6
16:10 1014 29.94 843 24.89 5.9 42.5 47 -4.7 23.5
16:15 1014 29.94 844 24.92 5.5 42 48 -4.7 23.5
16:20 1014 29.94 843 24.89 5.4 41.7 46 -5.2 22.7
16:25 1014 29.94 844 24.92 5.3 41.5 52 -3.8 25.2
16:30 1014 29.94 844 24.92 4.9 40.8 51 -4.5 23.9
16:35 1014 29.94 844 24.92 4.5 40.1 50 -5.1 22.8
16:40 1014 29.94 844 24.92 4.6 40.3 47 -5.9 21.4
16:45 1014 29.94 844 24.92 4.8 40.7 47 -5.5 22
16:50 1014 29.94 844 24.92 4.9 40.9 47 -5.3 22.4
16:55 1014 29.94 844 24.92 4.9 40.8 50 -4.7 23.6
17:00 1015 29.97 844 24.92 4.8 40.6 50 -4.7 23.6
17:05 1015 29.97 844 24.92 4.6 40.3 53 -4.2 24.4
17:10 1015 29.97 844 24.92 4.4 39.9 53 -4.5 24
17:15 1015 29.97 844 24.92 4.2 39.6 54 -4.2 24.4
17:20 1015 29.97 844 24.92 4 39.2 56 -3.9 24.9
17:25 1015 29.97 844 24.92 3.7 38.7 55 -4.4 24.1
17:30 1015 29.97 844 24.92 3.5 38.2 54 -5 23
17:35 1015 29.97 844 24.92 3.2 37.8 55 -5.1 22.9
17:40 1015 29.97 844 24.92 3 37.3 56 -4.9 23.1
17:45 1015 29.97 844 24.92 2.8 37 57 -4.8 23.3
17:50 1015 29.97 844 24.92 2.8 37 58 -4.8 23.4
17:55 1015 29.97 844 24.92 2.7 36.9 58 -4.6 23.7
18:00 1015 29.97 844 24.92 2.6 36.7 60 -4.4 24
18:05 1015 29.97 844 24.92 2.5 36.5 60 -4.4 24
18:10 1015 29.97 844 24.92 2.3 36.2 62 -4.2 24.4
18:15 1015 29.97 844 24.92 1.8 35.3 63 -4.4 24.1
18:20 1015 29.97 844 24.92 1.5 34.7 64 -4.6 23.8
18:25 1015 29.97 844 24.92 1.7 35 63 -4.5 23.8
18:30 1015 29.97 844 24.92 2.1 35.8 57 -5.6 21.9
18:35 1015 29.97 844 24.92 2.5 36.5 58 -5 23
18:40 1015 29.97 844 24.92 2.8 37 61 -4 24.8
18:45 1015 29.97 844 24.92 2.7 36.9 66 -3 26.6
18:50 1015 29.97 844 24.92 2.4 36.3 67 -3.1 26.4
18:55 1015 29.97 844 24.92 1.8 35.3 69 -3.2 26.3
19:00 1015 29.97 844 24.92 1.6 34.9 69 -3.4 25.9
19:05 1015 29.97 844 24.92 1.4 34.6 72 -3.1 26.3
19:10 1015 29.97 844 24.92 1 33.7 73 -3.3 26.1
19:15 1015 29.97 844 24.92 1.3 34.3 69 -3.7 25.3
19:20 1015 29.97 844 24.92 1.9 35.5 70 -3 26.7
19:25 1015 29.97 844 24.92 1.7 35 71 -3.1 26.5
19:30 1015 29.97 844 24.92 1.5 34.7 72 -3.1 26.4
19:35 1015 29.97 844 24.92 1.3 34.3 72 -3.3 26.1
19:40 1015 29.97 844 24.92 1.3 34.4 71 -3.3 26.1
19:45 1015 29.97 844 24.92 1.6 35 71 -3.1 26.4
19:50 1015 29.97 844 24.92 1.7 35 70 -3.3 26.1
19:55 1015 29.97 844 24.92 1.8 35.2 71 -3 26.6
20:00 1015 29.97 844 24.92 1.5 34.7 71 -3.1 26.4
20:05 1015 29.97 844 24.92 1.5 34.6 71 -3.3 26.1
20:10 1015 29.97 844 24.92 1.6 34.9 71 -3 26.5
20:15 1015 29.97 844 24.92 1.6 34.8 67 -3.9 24.9
20:20 1015 29.97 844 24.92 1.6 35 72 -2.9 26.8
20:25 1015 29.97 844 24.92 1.4 34.5 68 -3.8 25.2
20:30 1015 29.97 844 24.92 2 35.6 64 -4 24.8
20:35 1015 29.97 844 24.92 2.2 36 63 -4.2 24.5
20:40 1015 29.97 844 24.92 2.2 36 64 -3.9 24.9
20:45 1015 29.97 844 24.92 2.3 36.2 60 -4.6 23.7
20:50 1015 29.97 844 24.92 2.6 36.6 61 -4.2 24.5
20:55 1015 29.97 844 24.92 2.4 36.3 58 -5 23
21:00 1015 29.97 844 24.92 2.5 36.5 59 -4.7 23.5
21:05 1015 29.97 844 24.92 2.7 36.9 64 -3.4 25.9
21:10 1015 29.97 844 24.92 2.4 36.2 64 -3.8 25.1
21:15 1015 29.97 844 24.92 2.2 36 55 -5.8 21.5
21:20 1015 29.97 844 24.92 2.5 36.5 58 -4.9 23.2
21:25 1015 29.97 844 24.92 2.3 36.2 61 -4.5 23.9
21:30 1015 29.97 844 24.92 2.2 36 64 -3.9 24.9
21:35 1015 29.97 844 24.92 2.2 35.9 62 -4.5 24
21:40 1015 29.97 844 24.92 2.2 36 64 -3.9 24.9
21:45 1015 29.97 844 24.92 2.3 36.2 65 -3.5 25.6
21:50 1015 29.97 844 24.92 2.6 36.6 60 -4.4 24
21:55 1015 29.97 844 24.92 2.9 37.3 57 -4.7 23.5
22:00 1015 29.97 844 24.92 3.3 37.9 60 -3.8 25.2
22:05 1015 29.97 844 24.92 3.1 37.6 61 -3.6 25.6
22:10 1015 29.97 844 24.92 2.9 37.3 60 -4.2 24.5
22:15 1015 29.97 844 24.92 3 37.3 61 -3.8 25.2
22:20 1015 29.97 844 24.92 2.8 37.1 60 -4.1 24.6
22:25 1015 29.97 844 24.92 3 37.4 56 -5 22.9
22:30 1015 29.97 844 24.92 2.9 37.2 63 -3.4 25.9
22:35 1015 29.97 844 24.92 2.7 36.8 65 -3.2 26.3
22:40 1015 29.97 844 24.92 2.5 36.5 60 -4.5 24
22:45 1015 29.97 844 24.92 2.7 36.8 59 -4.5 23.9
22:50 1015 29.97 844 24.92 2.9 37.1 58 -4.6 23.7
22:55 1015 29.97 844 24.92 3 37.4 60 -4 24.8
23:00 1015 29.97 844 24.92 2.9 37.2 57 -4.7 23.5
23:05 1015 29.97 844 24.92 2.7 36.9 61 -4 24.8
23:10 1015 29.97 844 24.92 2.5 36.5 60 -4.4 24.1
23:15 1015 29.97 844 24.92 2.6 36.7 57 -5.2 22.7
23:20 1015 29.97 844 24.92 2.8 37.1 58 -4.8 23.4
23:25 1015 29.97 844 24.92 2.8 37.1 57 -4.9 23.2
23:30 1015 29.97 844 24.92 2.9 37.1 55 -5.2 22.6
23:35 1015 29.97 844 24.92 2.9 37.2 56 -5.1 22.8
23:40 1015 29.97 844 24.92 2.8 37 56 -5.2 22.6
23:45 1015 29.97 844 24.92 2.7 36.8 57 -5.1 22.9
23:50 1015 29.97 844 24.92 2.6 36.6 58 -5 23
23:55 1015 29.97 844 24.92 2.4 36.3 58 -5 23
24:00 1015 29.97 844 24.92 2.2 36 59 -4.9 23.3